Starocherkassk — UDPI — position and weather

sailwx.info

Track history (hours):
 
Tides and Currents Weather Stations Pressure Air Temp Water Temp Dewpoint Dewpoint Depression Visibility Wind Speed Wind Dir Waves Ship Positions

Starocherkassk

Last reported at 2014-May-05 13:29 UTC. Time now 2014-Oct-23 10:12 UTC.
Position N 44°45' E 035°05'.
Warning: this ship's position is months out of date.

Length 114 m; draft 3.9 m.

Type: Cargo ship. MMSI: 273379100.

Date/timePositionNaut miles runAvg speedWind from/ knotsBaromVisibWave heightAir tempDewpointWater temp
2014-May-05 13:29N 44°45' E 035°05'7 7.4
2014-May-05 12:33N 44°44' E 034°56'8 7.6
2014-May-05 11:33N 44°42' E 034°45'8 7.5
2014-May-05 10:33N 44°42' E 034°35'7 6.6
2014-May-05 09:33N 44°37' E 034°30'8 7.8
2014-May-05 08:33N 44°29' E 034°27'7 7.1
2014-May-05 07:33N 44°27' E 034°18'6 6.2
2014-May-05 06:33N 44°22' E 034°12'7 6.5
2014-May-05 05:30N 44°18' E 034°04'8 6.3
2014-May-05 04:17N 44°11' E 034°01'  
2014-Apr-28 16:17N 41°16' E 029°39'6 8.1
2014-Apr-28 15:33N 41°16' E 029°31'8 8.2
2014-Apr-28 14:34N 41°16' E 029°20'26 6.3
2014-Apr-28 10:23N 40°56' E 028°57'  
Track history (hours):
 
Tides and Currents Weather Stations Pressure Air Temp Water Temp Dewpoint Dewpoint Depression Visibility Wind Speed Wind Dir Waves Ship Positions

Starocherkassk

Last reported at 2014-May-05 13:29 UTC. Time now 2014-Oct-23 10:12 UTC.
Position N 44°45' E 035°05'.
Warning: this ship's position is months out of date.

Length 114 m; draft 3.9 m.

Type: Cargo ship. MMSI: 273379100.

Date/timePositionNaut miles runAvg speedWind from/ knotsBaromVisibWave heightAir tempDewpointWater temp
2014-May-05 13:29N 44°45' E 035°05'7 7.4
2014-May-05 12:33N 44°44' E 034°56'8 7.6
2014-May-05 11:33N 44°42' E 034°45'8 7.5
2014-May-05 10:33N 44°42' E 034°35'7 6.6
2014-May-05 09:33N 44°37' E 034°30'8 7.8
2014-May-05 08:33N 44°29' E 034°27'7 7.1
2014-May-05 07:33N 44°27' E 034°18'6 6.2
2014-May-05 06:33N 44°22' E 034°12'7 6.5
2014-May-05 05:30N 44°18' E 034°04'8 6.3
2014-May-05 04:17N 44°11' E 034°01'  
2014-Apr-28 16:17N 41°16' E 029°39'6 8.1
2014-Apr-28 15:33N 41°16' E 029°31'8 8.2
2014-Apr-28 14:34N 41°16' E 029°20'26 6.3
2014-Apr-28 10:23N 40°56' E 028°57'  

Dump ship's entire track history